Time;durP1;ratioP1;P1;durP2;ratioP2;P2;SDS_P1;SDS_P2;PMS_P1;PMS_P2;Temp;Humidity;BMP_temperature;BMP_pressure;BME280_temperature;BME280_humidity;BME280_pressure;Samples;Min_cycle;Max_cycle;Signal;HPM_P1;HPM_P2
2023/06/08 00:01:25;;;;;;;;;;;12.00;99.90;;;;;;5038856;28;19990;-87
2023/06/08 00:03:52;;;;;;;;;;;12.00;99.90;;;;;;5043449;28;19932;-86
2023/06/08 00:06:20;;;;;;;;;;;11.90;99.90;;;;;;5039401;28;19932;-85
2023/06/08 00:08:46;;;;;;;;;;;12.10;99.90;;;;;;5023202;28;19964;-87
2023/06/08 00:11:12;;;;;;;;;;;12.10;99.90;;;;;;5022383;28;20381;-86
2023/06/08 00:13:37;;;;;;;;;;;12.10;99.90;;;;;;5020700;28;19936;-89
2023/06/08 00:16:04;;;;;;;;;;;12.00;99.90;;;;;;5036538;28;19925;-86
2023/06/08 00:18:30;;;;;;;;;;;12.10;99.90;;;;;;5032788;28;20342;-86
2023/06/08 00:20:56;;;;;;;;;;;12.10;99.90;;;;;;5036504;28;19928;-86
2023/06/08 00:23:22;;;;;;;;;;;12.00;99.90;;;;;;5037420;28;19947;-87
2023/06/08 00:25:48;;;;;;;;;;;11.90;99.90;;;;;;5021343;28;19924;-86
2023/06/08 00:28:15;;;;;;;;;;;12.00;99.90;;;;;;5021109;28;19978;-87
2023/06/08 00:30:41;;;;;;;;;;;11.90;99.90;;;;;;5036947;28;19924;-86
2023/06/08 00:33:07;;;;;;;;;;;11.90;99.90;;;;;;5020296;28;19928;-86
2023/06/08 00:35:32;;;;;;;;;;;12.00;99.90;;;;;;5035778;28;19924;-86
2023/06/08 00:37:58;;;;;;;;;;;12.00;99.90;;;;;;5037603;28;19931;-87
2023/06/08 00:40:23;;;;;;;;;;;12.00;99.90;;;;;;5035814;28;20045;-86
2023/06/08 00:42:49;;;;;;;;;;;12.00;99.90;;;;;;5036933;28;20382;-86
2023/06/08 00:45:15;;;;;;;;;;;11.90;99.90;;;;;;5020053;28;19925;-86
2023/06/08 00:47:40;;;;;;;;;;;11.90;99.90;;;;;;5020430;28;19925;-86
2023/06/08 00:50:08;;;;;;;;;;;11.90;99.90;;;;;;5024865;28;19925;-87
2023/06/08 00:52:34;;;;;;;;;;;11.90;99.90;;;;;;5037005;28;19952;-86
2023/06/08 00:55:01;;;;;;;;;;;11.90;99.90;;;;;;5020155;28;19924;-86
2023/06/08 00:57:28;;;;;;;;;;;11.90;99.90;;;;;;5017447;28;19931;-86
2023/06/08 00:59:55;;;;;;;;;;;11.90;99.90;;;;;;5036026;28;19925;-86
2023/06/08 01:02:22;;;;;;;;;;;11.90;99.90;;;;;;5036852;28;19978;-86
2023/06/08 01:04:50;;;;;;;;;;;11.80;99.90;;;;;;5018378;28;20282;-86
2023/06/08 01:07:16;;;;;;;;;;;11.70;99.90;;;;;;5019421;28;19932;-86
2023/06/08 01:09:48;;;;;;;;;;;11.70;99.90;;;;;;5036730;28;20302;-86
2023/06/08 01:12:18;;;;;;;;;;;11.70;99.90;;;;;;5036623;28;20349;-86
2023/06/08 01:15:02;;;;;;;;;;;11.70;99.90;;;;;;5032487;28;19925;-86
2023/06/08 01:17:38;;;;;;;;;;;11.80;99.90;;;;;;5033249;28;19925;-87
2023/06/08 01:20:24;;;;;;;;;;;11.90;99.90;;;;;;5015268;28;19924;-87
2023/06/08 01:22:51;;;;;;;;;;;11.90;99.90;;;;;;5020368;28;19929;-86
2023/06/08 01:25:18;;;;;;;;;;;11.80;99.90;;;;;;5014091;28;20275;-86
2023/06/08 01:27:44;;;;;;;;;;;11.80;99.90;;;;;;5019905;28;19975;-86
2023/06/08 01:30:10;;;;;;;;;;;11.80;99.90;;;;;;5035192;28;19964;-86
2023/06/08 01:32:36;;;;;;;;;;;11.80;99.90;;;;;;5019993;28;20279;-86
2023/06/08 01:35:01;;;;;;;;;;;11.80;99.90;;;;;;5034267;28;19951;-87
2023/06/08 01:37:32;;;;;;;;;;;11.80;99.90;;;;;;5035740;28;19932;-86
2023/06/08 01:40:07;;;;;;;;;;;11.80;99.90;;;;;;5020063;28;20066;-86
2023/06/08 01:42:34;;;;;;;;;;;11.90;99.90;;;;;;5019541;28;19959;-86
2023/06/08 01:45:03;;;;;;;;;;;11.80;99.90;;;;;;5035832;28;20027;-85
2023/06/08 01:47:33;;;;;;;;;;;11.90;99.90;;;;;;5034853;28;20283;-86
2023/06/08 01:49:59;;;;;;;;;;;11.90;99.90;;;;;;5034391;28;19925;-86
2023/06/08 01:52:25;;;;;;;;;;;11.80;99.90;;;;;;5018619;28;19925;-86
2023/06/08 01:54:51;;;;;;;;;;;11.70;99.90;;;;;;5032496;28;20282;-86
2023/06/08 01:57:17;;;;;;;;;;;11.70;99.90;;;;;;5015634;28;19928;-86
2023/06/08 01:59:43;;;;;;;;;;;11.70;99.90;;;;;;5026633;28;19925;-86
2023/06/08 02:02:08;;;;;;;;;;;11.80;99.90;;;;;;5035446;28;19924;-86
2023/06/08 02:04:34;;;;;;;;;;;11.80;99.90;;;;;;5036575;28;20058;-86
2023/06/08 02:06:59;;;;;;;;;;;11.70;99.90;;;;;;5035715;28;19924;-85
2023/06/08 02:09:25;;;;;;;;;;;11.70;99.90;;;;;;5003017;28;20011;-85
2023/06/08 02:12:01;;;;;;;;;;;11.80;99.90;;;;;;5035176;28;20363;-87
2023/06/08 02:14:27;;;;;;;;;;;11.80;99.90;;;;;;5029109;28;19933;-86
2023/06/08 02:16:52;;;;;;;;;;;11.70;99.90;;;;;;5006014;28;19932;-86
2023/06/08 02:19:19;;;;;;;;;;;11.80;99.90;;;;;;5030569;28;19979;-85
2023/06/08 02:21:45;;;;;;;;;;;11.80;99.90;;;;;;5018882;28;19925;-86
2023/06/08 02:24:10;;;;;;;;;;;11.80;99.90;;;;;;5034822;28;19991;-86
2023/06/08 02:26:36;;;;;;;;;;;11.80;99.90;;;;;;5007267;28;20012;-87
2023/06/08 02:29:02;;;;;;;;;;;11.80;99.90;;;;;;5038191;28;19921;-85
2023/06/08 02:31:28;;;;;;;;;;;11.80;99.90;;;;;;5031208;28;20024;-86
2023/06/08 02:33:53;;;;;;;;;;;11.40;99.90;;;;;;5023248;28;20390;-86
2023/06/08 02:36:19;;;;;;;;;;;11.70;99.90;;;;;;5035328;28;19924;-86
2023/06/08 02:38:45;;;;;;;;;;;11.70;99.90;;;;;;5035081;28;19964;-86
2023/06/08 02:41:10;;;;;;;;;;;11.70;99.90;;;;;;5018702;28;20397;-86
2023/06/08 02:43:36;;;;;;;;;;;11.70;99.90;;;;;;5018491;28;19931;-87
2023/06/08 02:46:01;;;;;;;;;;;11.70;99.90;;;;;;5008492;28;19992;-86
2023/06/08 02:48:27;;;;;;;;;;;11.80;99.90;;;;;;5026420;28;19925;-87
2023/06/08 02:50:53;;;;;;;;;;;11.70;99.90;;;;;;5031872;28;20054;-86
2023/06/08 02:53:18;;;;;;;;;;;11.70;99.90;;;;;;5031482;28;19925;-86
2023/06/08 02:55:44;;;;;;;;;;;11.70;99.90;;;;;;5031979;28;19924;-86
2023/06/08 02:58:10;;;;;;;;;;;11.70;99.90;;;;;;5035455;28;20016;-86
2023/06/08 03:00:36;;;;;;;;;;;11.70;99.90;;;;;;5031105;28;19974;-87
2023/06/08 03:03:01;;;;;;;;;;;11.70;99.90;;;;;;5039365;28;19925;-87
2023/06/08 03:05:29;;;;;;;;;;;11.70;99.90;;;;;;5021571;28;19971;-86
2023/06/08 03:07:54;;;;;;;;;;;11.80;99.90;;;;;;5013524;28;19952;-86
2023/06/08 03:10:22;;;;;;;;;;;11.80;99.90;;;;;;5021839;28;20206;-86
2023/06/08 03:12:47;;;;;;;;;;;11.80;99.90;;;;;;5038822;28;20424;-86
2023/06/08 03:15:22;;;;;;;;;;;11.90;99.90;;;;;;5032268;28;20011;-86
2023/06/08 03:17:48;;;;;;;;;;;11.90;99.90;;;;;;5026910;28;19925;-86
2023/06/08 03:20:17;;;;;;;;;;;11.80;99.90;;;;;;5037157;28;19979;-86
2023/06/08 03:22:45;;;;;;;;;;;11.80;99.90;;;;;;5038567;28;19924;-86
2023/06/08 03:25:15;;;;;;;;;;;11.80;99.90;;;;;;5038548;28;19979;-86
2023/06/08 03:27:43;;;;;;;;;;;11.90;99.90;;;;;;5032383;28;20034;-86
2023/06/08 03:30:09;;;;;;;;;;;11.90;99.90;;;;;;5015844;28;20407;-86
2023/06/08 03:32:35;;;;;;;;;;;11.90;99.90;;;;;;5051359;28;20295;-85
2023/06/08 03:35:01;;;;;;;;;;;11.90;99.90;;;;;;5034985;28;19925;-87
2023/06/08 03:37:26;;;;;;;;;;;11.90;99.90;;;;;;5031216;28;19929;-86
2023/06/08 03:39:52;;;;;;;;;;;11.90;99.90;;;;;;5040093;28;19960;-87
2023/06/08 03:42:17;;;;;;;;;;;11.90;99.90;;;;;;5015963;28;19947;-86
2023/06/08 03:44:43;;;;;;;;;;;11.90;99.90;;;;;;5020188;28;19925;-84
2023/06/08 03:47:12;;;;;;;;;;;11.90;99.90;;;;;;5030031;28;19940;-86
2023/06/08 03:49:38;;;;;;;;;;;12.00;99.90;;;;;;5036511;28;19929;-86
2023/06/08 03:52:04;;;;;;;;;;;12.00;99.90;;;;;;5037327;28;19992;-86
2023/06/08 03:54:30;;;;;;;;;;;12.00;99.90;;;;;;5048581;28;19924;-86
2023/06/08 03:56:56;;;;;;;;;;;12.10;99.90;;;;;;5027997;28;19935;-84
2023/06/08 03:59:21;;;;;;;;;;;12.00;99.90;;;;;;5020340;28;19932;-86
2023/06/08 04:01:47;;;;;;;;;;;12.00;99.90;;;;;;5037721;28;19924;-87
2023/06/08 04:04:13;;;;;;;;;;;12.00;99.90;;;;;;5036420;28;19925;-85
2023/06/08 04:06:40;;;;;;;;;;;12.00;99.90;;;;;;5021281;28;19932;-86
2023/06/08 04:09:06;;;;;;;;;;;12.00;99.90;;;;;;5022879;28;19962;-85
2023/06/08 04:11:32;;;;;;;;;;;12.00;99.90;;;;;;5037543;28;19979;-85
2023/06/08 04:13:57;;;;;;;;;;;12.00;99.90;;;;;;5037192;28;19928;-86
2023/06/08 04:16:23;;;;;;;;;;;12.00;99.90;;;;;;5020912;28;19925;-86
2023/06/08 04:18:49;;;;;;;;;;;12.10;99.90;;;;;;5036005;28;19970;-85
2023/06/08 04:21:14;;;;;;;;;;;12.00;99.90;;;;;;5037373;28;20293;-86
2023/06/08 04:23:40;;;;;;;;;;;12.10;99.90;;;;;;5037016;28;20015;-86
2023/06/08 04:26:08;;;;;;;;;;;12.10;99.90;;;;;;5037375;28;19933;-85
2023/06/08 04:28:34;;;;;;;;;;;12.10;99.90;;;;;;5032343;28;19926;-87
2023/06/08 04:31:00;;;;;;;;;;;12.10;99.90;;;;;;5029911;28;19925;-86
2023/06/08 04:33:27;;;;;;;;;;;12.10;99.90;;;;;;5019804;28;20393;-86
2023/06/08 04:35:53;;;;;;;;;;;12.10;99.90;;;;;;5022978;28;19925;-86
2023/06/08 04:38:20;;;;;;;;;;;12.20;99.90;;;;;;5020751;28;20393;-86
2023/06/08 04:40:52;;;;;;;;;;;12.20;99.90;;;;;;5036780;28;19931;-86
2023/06/08 04:43:18;;;;;;;;;;;12.20;99.90;;;;;;5034185;28;20524;-86
2023/06/08 04:45:45;;;;;;;;;;;12.20;99.90;;;;;;5031567;28;19933;-86
2023/06/08 04:48:11;;;;;;;;;;;12.30;99.90;;;;;;5019834;28;19968;-86
2023/06/08 04:50:38;;;;;;;;;;;12.30;99.90;;;;;;5035666;28;20390;-85
2023/06/08 04:53:04;;;;;;;;;;;12.40;99.90;;;;;;5018457;28;19932;-85
2023/06/08 04:55:30;;;;;;;;;;;12.40;99.90;;;;;;5025834;28;19931;-86
2023/06/08 04:57:56;;;;;;;;;;;12.40;99.90;;;;;;5012281;28;20291;-88
2023/06/08 05:00:21;;;;;;;;;;;12.40;99.90;;;;;;5026222;28;19972;-85
2023/06/08 05:02:47;;;;;;;;;;;12.40;99.90;;;;;;5024208;28;19928;-86
2023/06/08 05:05:13;;;;;;;;;;;12.40;99.90;;;;;;5035132;28;20293;-85
2023/06/08 05:07:42;;;;;;;;;;;12.50;99.90;;;;;;4999845;28;20001;-86
2023/06/08 05:10:08;;;;;;;;;;;12.40;99.90;;;;;;5029107;28;20409;-85
2023/06/08 05:12:33;;;;;;;;;;;12.50;99.90;;;;;;5014327;28;19933;-86
2023/06/08 05:15:00;;;;;;;;;;;12.50;99.90;;;;;;5003453;28;20344;-87
2023/06/08 05:17:25;;;;;;;;;;;12.50;99.90;;;;;;5036455;28;19925;-87
2023/06/08 05:19:51;;;;;;;;;;;12.50;99.90;;;;;;5002263;28;19924;-85
2023/06/08 05:22:17;;;;;;;;;;;12.60;99.90;;;;;;5025916;28;19929;-86
2023/06/08 05:24:43;;;;;;;;;;;12.60;99.90;;;;;;5041249;28;19948;-85
2023/06/08 05:27:08;;;;;;;;;;;12.60;99.90;;;;;;5026102;28;19925;-86
2023/06/08 05:29:34;;;;;;;;;;;12.70;99.90;;;;;;5027028;28;20429;-85
2023/06/08 05:32:00;;;;;;;;;;;12.70;99.90;;;;;;5036443;28;19924;-86
2023/06/08 05:34:26;;;;;;;;;;;12.80;99.90;;;;;;5034670;28;20294;-85
2023/06/08 05:36:52;;;;;;;;;;;12.90;99.90;;;;;;5035959;28;19926;-85
2023/06/08 05:39:18;;;;;;;;;;;12.90;99.90;;;;;;5032646;28;20382;-85
2023/06/08 05:41:44;;;;;;;;;;;12.90;99.90;;;;;;5016441;28;19925;-86
2023/06/08 05:44:09;;;;;;;;;;;13.00;99.90;;;;;;5043106;28;19925;-86
2023/06/08 05:46:35;;;;;;;;;;;13.00;99.90;;;;;;5021915;28;19925;-86
2023/06/08 05:49:06;;;;;;;;;;;13.00;99.90;;;;;;5006638;28;19925;-86
2023/06/08 05:51:32;;;;;;;;;;;13.10;99.90;;;;;;5035501;28;20317;-86
2023/06/08 05:53:57;;;;;;;;;;;13.10;99.90;;;;;;5018759;28;19929;-85
2023/06/08 05:56:23;;;;;;;;;;;13.30;99.90;;;;;;5016699;28;19924;-85
2023/06/08 05:58:49;;;;;;;;;;;13.20;99.90;;;;;;5016037;28;20286;-84
2023/06/08 06:01:14;;;;;;;;;;;13.20;99.90;;;;;;5045453;28;19925;-84
2023/06/08 06:03:40;;;;;;;;;;;13.20;99.90;;;;;;5028782;28;19979;-84
2023/06/08 06:06:06;;;;;;;;;;;13.20;99.90;;;;;;5035612;28;20286;-84
2023/06/08 06:08:32;;;;;;;;;;;13.30;99.90;;;;;;5018495;28;19924;-86
2023/06/08 06:10:58;;;;;;;;;;;13.40;99.90;;;;;;5019212;28;20354;-84
2023/06/08 06:13:24;;;;;;;;;;;13.50;99.90;;;;;;5035442;28;19925;-85
2023/06/08 06:15:51;;;;;;;;;;;13.60;99.90;;;;;;5022017;28;19925;-85
2023/06/08 06:18:17;;;;;;;;;;;13.60;99.90;;;;;;5035057;28;19933;-85
2023/06/08 06:20:42;;;;;;;;;;;13.70;99.90;;;;;;5027849;28;20401;-85
2023/06/08 06:23:08;;;;;;;;;;;13.80;99.90;;;;;;5013776;28;19932;-85
2023/06/08 06:25:35;;;;;;;;;;;13.90;99.90;;;;;;5018615;28;19925;-85
2023/06/08 06:28:02;;;;;;;;;;;14.00;99.90;;;;;;5015906;28;19925;-85
2023/06/08 06:30:27;;;;;;;;;;;14.00;99.90;;;;;;5035103;28;19932;-85
2023/06/08 06:32:53;;;;;;;;;;;13.90;99.90;;;;;;5033051;28;20220;-85
2023/06/08 06:35:18;;;;;;;;;;;13.90;99.90;;;;;;5038082;28;20363;-86
2023/06/08 06:37:44;;;;;;;;;;;13.80;99.90;;;;;;5039653;28;19931;-85
2023/06/08 06:40:10;;;;;;;;;;;13.80;99.90;;;;;;5039400;28;19931;-85
2023/06/08 06:42:37;;;;;;;;;;;13.80;99.90;;;;;;5039661;28;20255;-85
2023/06/08 06:45:03;;;;;;;;;;;13.70;99.90;;;;;;5022820;28;20007;-85
2023/06/08 06:47:28;;;;;;;;;;;13.90;99.90;;;;;;5022422;28;19924;-84
2023/06/08 06:49:54;;;;;;;;;;;14.00;99.90;;;;;;5038447;28;19924;-85
2023/06/08 06:52:20;;;;;;;;;;;14.00;99.90;;;;;;5033721;28;19979;-85
2023/06/08 06:54:46;;;;;;;;;;;14.00;99.90;;;;;;5035459;28;19925;-86
2023/06/08 06:57:11;;;;;;;;;;;14.00;99.90;;;;;;5023034;28;20363;-85
2023/06/08 06:59:38;;;;;;;;;;;14.00;99.90;;;;;;5039033;28;19929;-85
2023/06/08 07:02:05;;;;;;;;;;;14.10;99.90;;;;;;5039085;28;19925;-86
2023/06/08 07:04:31;;;;;;;;;;;14.10;99.90;;;;;;5038781;28;19968;-85
2023/06/08 07:06:57;;;;;;;;;;;14.20;99.90;;;;;;5041514;28;19933;-86
2023/06/08 07:09:24;;;;;;;;;;;14.20;99.90;;;;;;5026446;28;19946;-85
2023/06/08 07:11:50;;;;;;;;;;;14.10;99.90;;;;;;5040359;28;19932;-86
2023/06/08 07:14:16;;;;;;;;;;;14.20;99.90;;;;;;5023264;28;19924;-86
2023/06/08 07:16:41;;;;;;;;;;;14.20;99.90;;;;;;5039756;28;20008;-85
2023/06/08 07:19:10;;;;;;;;;;;14.30;99.90;;;;;;5022295;28;20397;-85
2023/06/08 07:21:38;;;;;;;;;;;14.30;99.90;;;;;;5039418;28;19925;-86
2023/06/08 07:24:07;;;;;;;;;;;14.30;99.90;;;;;;5038596;28;19968;-85
2023/06/08 07:26:33;;;;;;;;;;;14.40;99.90;;;;;;5039200;28;19951;-85
2023/06/08 07:28:59;;;;;;;;;;;14.40;99.90;;;;;;5052824;28;20354;-85
2023/06/08 07:31:26;;;;;;;;;;;14.40;99.90;;;;;;5038215;28;19924;-85
2023/06/08 07:33:52;;;;;;;;;;;14.40;99.90;;;;;;5020742;28;19929;-86
2023/06/08 07:36:18;;;;;;;;;;;14.40;99.90;;;;;;5009670;28;20335;-86
2023/06/08 07:38:43;;;;;;;;;;;14.40;99.90;;;;;;5038310;28;19932;-86
2023/06/08 07:41:09;;;;;;;;;;;14.50;99.90;;;;;;5021856;28;19925;-85
2023/06/08 07:43:35;;;;;;;;;;;14.50;99.90;;;;;;5038187;28;19925;-85
2023/06/08 07:46:00;;;;;;;;;;;14.60;99.90;;;;;;5034979;28;19932;-85
2023/06/08 07:48:27;;;;;;;;;;;14.80;99.90;;;;;;5002895;28;19936;-86
2023/06/08 07:50:53;;;;;;;;;;;14.80;99.90;;;;;;5005110;28;19924;-86
2023/06/08 07:53:20;;;;;;;;;;;14.90;99.90;;;;;;5054780;28;19924;-84
2023/06/08 07:55:45;;;;;;;;;;;14.90;99.90;;;;;;5038014;28;19970;-86
2023/06/08 07:58:11;;;;;;;;;;;14.90;99.90;;;;;;5037350;28;19932;-86
2023/06/08 08:00:39;;;;;;;;;;;15.10;99.90;;;;;;5017433;28;19929;-84
2023/06/08 08:03:04;;;;;;;;;;;15.10;99.90;;;;;;5012733;28;19931;-86
2023/06/08 08:05:30;;;;;;;;;;;15.20;99.90;;;;;;5039680;28;20371;-85
2023/06/08 08:07:56;;;;;;;;;;;15.30;99.90;;;;;;5006946;28;20032;-86
2023/06/08 08:10:21;;;;;;;;;;;16.00;99.90;;;;;;4992397;28;19964;-85
2023/06/08 08:12:47;;;;;;;;;;;15.20;99.90;;;;;;5005165;28;19925;-86
2023/06/08 08:15:13;;;;;;;;;;;15.30;99.90;;;;;;5037743;28;19925;-85
2023/06/08 08:17:38;;;;;;;;;;;15.30;99.90;;;;;;5021548;28;19925;-85
2023/06/08 08:20:04;;;;;;;;;;;15.40;99.90;;;;;;5019938;28;19929;-85
2023/06/08 08:22:31;;;;;;;;;;;15.50;99.90;;;;;;5034657;28;19925;-85
2023/06/08 08:24:57;;;;;;;;;;;15.60;99.90;;;;;;5037531;28;19933;-83
2023/06/08 08:27:23;;;;;;;;;;;15.60;99.90;;;;;;5022611;28;19924;-85
2023/06/08 08:29:48;;;;;;;;;;;15.70;99.90;;;;;;5020535;28;20381;-85
2023/06/08 08:32:14;;;;;;;;;;;15.60;99.90;;;;;;5021159;28;19925;-85
2023/06/08 08:34:40;;;;;;;;;;;15.80;99.90;;;;;;5052806;28;19924;-86
2023/06/08 08:37:05;;;;;;;;;;;15.80;99.90;;;;;;5037418;28;20016;-85
2023/06/08 08:39:32;;;;;;;;;;;15.90;99.90;;;;;;5037150;28;19925;-85
2023/06/08 08:42:00;;;;;;;;;;;15.90;99.90;;;;;;5037261;28;20476;-85
2023/06/08 08:44:26;;;;;;;;;;;16.00;99.90;;;;;;5020626;28;20320;-86
2023/06/08 08:46:52;;;;;;;;;;;16.20;99.90;;;;;;5036823;28;20012;-85
2023/06/08 08:49:21;;;;;;;;;;;16.20;99.90;;;;;;5036063;28;19947;-86
2023/06/08 08:51:51;;;;;;;;;;;16.30;99.90;;;;;;5020632;28;19975;-87
2023/06/08 08:54:17;;;;;;;;;;;16.40;99.90;;;;;;5036754;28;20015;-86
2023/06/08 08:56:43;;;;;;;;;;;16.50;99.90;;;;;;5036848;28;20017;-85
2023/06/08 08:59:09;;;;;;;;;;;16.50;99.90;;;;;;5036785;28;20329;-86
2023/06/08 09:01:35;;;;;;;;;;;16.50;99.90;;;;;;5036576;28;19964;-86
2023/06/08 09:04:01;;;;;;;;;;;16.60;99.90;;;;;;5018798;28;20021;-85
2023/06/08 09:06:30;;;;;;;;;;;16.70;99.90;;;;;;5020511;28;19929;-86
2023/06/08 09:08:56;;;;;;;;;;;16.80;99.90;;;;;;5019705;28;19924;-85
2023/06/08 09:11:26;;;;;;;;;;;16.90;99.90;;;;;;5020583;28;19932;-86
2023/06/08 09:14:08;;;;;;;;;;;17.00;99.90;;;;;;5036606;28;19933;-86
2023/06/08 09:16:43;;;;;;;;;;;17.00;99.90;;;;;;5036234;28;20000;-84
2023/06/08 09:19:09;;;;;;;;;;;17.10;99.90;;;;;;5035357;28;20011;-86
2023/06/08 09:21:34;;;;;;;;;;;17.10;99.90;;;;;;5026234;28;20449;-86
2023/06/08 09:24:11;;;;;;;;;;;17.20;99.90;;;;;;5011514;28;19931;-87
2023/06/08 09:26:50;;;;;;;;;;;17.30;99.90;;;;;;5036679;28;19982;-87
2023/06/08 09:29:57;;;;;;;;;;;17.40;99.90;;;;;;5032024;28;19948;-85
2023/06/08 09:32:31;;;;;;;;;;;17.50;99.90;;;;;;4972943;28;19926;-86
2023/06/08 09:35:02;;;;;;;;;;;17.70;99.90;;;;;;4954556;28;19926;-86
2023/06/08 09:37:32;;;;;;;;;;;17.70;99.90;;;;;;4993633;28;20275;-86
2023/06/08 09:39:59;;;;;;;;;;;17.90;99.90;;;;;;5035995;28;20296;-86
2023/06/08 09:42:46;;;;;;;;;;;17.90;99.90;;;;;;5036062;28;19931;-86
2023/06/08 09:45:13;;;;;;;;;;;18.00;99.90;;;;;;5017660;28;19925;-86
2023/06/08 09:47:40;;;;;;;;;;;18.00;99.90;;;;;;5034421;28;19925;-86
2023/06/08 09:50:07;;;;;;;;;;;18.10;99.90;;;;;;5018213;28;19925;-86
2023/06/08 09:52:33;;;;;;;;;;;18.10;99.90;;;;;;5019708;28;20353;-86
2023/06/08 09:54:59;;;;;;;;;;;18.10;99.90;;;;;;5035773;28;19925;-84
2023/06/08 09:57:25;;;;;;;;;;;18.20;99.90;;;;;;5035996;28;19925;-85
2023/06/08 10:00:21;;;;;;;;;;;18.20;99.90;;;;;;5018721;28;19995;-86
2023/06/08 10:03:22;;;;;;;;;;;18.20;99.90;;;;;;5035864;28;20446;-87
2023/06/08 10:05:48;;;;;;;;;;;18.20;99.90;;;;;;4956027;28;19986;-86
2023/06/08 10:08:19;;;;;;;;;;;18.40;99.90;;;;;;5002349;28;19967;-86
2023/06/08 10:10:45;;;;;;;;;;;18.50;99.90;;;;;;5019458;28;20492;-85
2023/06/08 10:13:10;;;;;;;;;;;18.60;99.90;;;;;;5020045;28;20007;-85
2023/06/08 10:15:36;;;;;;;;;;;18.70;99.90;;;;;;5016258;28;19925;-84
2023/06/08 10:18:03;;;;;;;;;;;18.70;99.90;;;;;;5035349;28;20022;-87
2023/06/08 10:20:29;;;;;;;;;;;18.60;99.90;;;;;;5018472;28;19925;-85
2023/06/08 10:22:57;;;;;;;;;;;18.60;99.90;;;;;;5034324;28;20263;-86
2023/06/08 10:25:25;;;;;;;;;;;18.70;99.90;;;;;;5036064;28;20248;-86
2023/06/08 10:27:51;;;;;;;;;;;18.70;99.90;;;;;;5019459;28;19932;-86
2023/06/08 10:30:26;;;;;;;;;;;18.70;99.90;;;;;;5031402;28;19929;-84
2023/06/08 10:33:02;;;;;;;;;;;18.90;99.90;;;;;;5030635;28;19929;-86
2023/06/08 10:35:27;;;;;;;;;;;18.80;99.90;;;;;;5028438;28;19935;-85
2023/06/08 10:37:54;;;;;;;;;;;18.90;99.90;;;;;;5035407;28;19925;-84
2023/06/08 10:40:20;;;;;;;;;;;18.90;99.90;;;;;;5033463;28;19995;-86
2023/06/08 10:42:55;;;;;;;;;;;18.90;99.90;;;;;;5015286;28;19956;-85
2023/06/08 10:45:31;;;;;;;;;;;18.80;99.90;;;;;;5018871;28;19975;-86
2023/06/08 10:48:06;;;;;;;;;;;19.00;99.90;;;;;;5018959;28;19929;-87
2023/06/08 10:50:38;;;;;;;;;;;18.90;99.90;;;;;;5019026;28;19935;-86
2023/06/08 10:53:04;;;;;;;;;;;19.10;99.90;;;;;;5035581;28;19928;-86
2023/06/08 10:55:30;;;;;;;;;;;19.10;99.90;;;;;;5018594;28;20433;-86
2023/06/08 10:58:05;;;;;;;;;;;19.10;99.90;;;;;;5019013;28;19929;-88
2023/06/08 11:00:32;;;;;;;;;;;19.10;99.90;;;;;;5025985;28;19925;-87
2023/06/08 11:03:04;;;;;;;;;;;19.30;99.90;;;;;;5025771;28;19928;-86
2023/06/08 11:05:31;;;;;;;;;;;19.30;99.90;;;;;;5018086;28;19924;-86
2023/06/08 11:07:56;;;;;;;;;;;19.30;99.90;;;;;;5034630;28;19978;-88
2023/06/08 11:10:23;;;;;;;;;;;19.30;99.90;;;;;;5035177;28;19928;-87
2023/06/08 11:12:48;;;;;;;;;;;19.50;99.90;;;;;;5035570;28;19924;-86
2023/06/08 11:15:14;;;;;;;;;;;19.50;99.90;;;;;;5018718;28;20325;-86
2023/06/08 11:17:45;;;;;;;;;;;19.60;99.90;;;;;;5035187;28;20402;-86
2023/06/08 11:20:13;;;;;;;;;;;19.70;99.90;;;;;;5028384;28;20015;-85
2023/06/08 11:22:39;;;;;;;;;;;19.80;99.90;;;;;;5039962;28;19932;-85
2023/06/08 11:25:05;;;;;;;;;;;19.80;99.90;;;;;;5040936;28;20011;-87
2023/06/08 11:27:31;;;;;;;;;;;19.80;99.90;;;;;;5018580;28;19925;-86
2023/06/08 11:29:57;;;;;;;;;;;19.90;99.90;;;;;;5019726;28;19936;-86
2023/06/08 11:32:23;;;;;;;;;;;20.00;99.90;;;;;;5032910;28;20394;-86
2023/06/08 11:34:49;;;;;;;;;;;20.00;99.90;;;;;;5026280;28;19925;-86
2023/06/08 11:37:17;;;;;;;;;;;20.00;99.90;;;;;;5040225;28;19925;-86
2023/06/08 11:39:43;;;;;;;;;;;20.00;99.90;;;;;;5032473;28;20008;-86
2023/06/08 11:42:09;;;;;;;;;;;20.10;99.90;;;;;;5024026;28;20385;-86
2023/06/08 11:44:35;;;;;;;;;;;20.20;99.90;;;;;;5023362;28;19929;-86
2023/06/08 11:47:01;;;;;;;;;;;20.20;99.90;;;;;;5039155;28;19928;-86
2023/06/08 11:49:47;;;;;;;;;;;20.30;99.90;;;;;;5029511;28;19999;-85
2023/06/08 11:52:12;;;;;;;;;;;20.20;99.90;;;;;;5028271;28;19924;-85
2023/06/08 11:54:38;;;;;;;;;;;20.20;99.90;;;;;;5020907;28;19987;-86
2023/06/08 11:57:05;;;;;;;;;;;20.10;99.90;;;;;;5032968;28;20259;-86
2023/06/08 11:59:35;;;;;;;;;;;20.10;99.90;;;;;;5037576;28;19935;-86
2023/06/08 12:02:00;;;;;;;;;;;20.00;99.90;;;;;;5021189;28;19925;-85
2023/06/08 12:04:35;;;;;;;;;;;20.10;99.90;;;;;;5020771;28;19931;-87
2023/06/08 12:07:09;;;;;;;;;;;20.10;99.90;;;;;;5021868;28;20420;-86
2023/06/08 12:09:36;;;;;;;;;;;20.30;99.90;;;;;;5037305;28;19951;-87
2023/06/08 12:12:09;;;;;;;;;;;20.40;99.90;;;;;;5021474;28;19925;-86
2023/06/08 12:14:35;;;;;;;;;;;20.50;99.90;;;;;;5037757;28;19931;-86
2023/06/08 12:17:04;;;;;;;;;;;20.50;99.90;;;;;;5037553;28;19943;-87
2023/06/08 12:19:31;;;;;;;;;;;20.50;99.90;;;;;;5019555;28;19996;-86
2023/06/08 12:21:57;;;;;;;;;;;20.50;99.90;;;;;;5037576;28;20018;-87
2023/06/08 12:24:23;;;;;;;;;;;20.60;99.90;;;;;;5020430;28;19987;-85
2023/06/08 12:26:49;;;;;;;;;;;20.70;99.90;;;;;;5021202;28;19925;-86
2023/06/08 12:29:15;;;;;;;;;;;20.60;99.90;;;;;;5035168;28;20371;-86
2023/06/08 12:31:40;;;;;;;;;;;20.60;99.90;;;;;;5009204;28;19968;-85
2023/06/08 12:34:06;;;;;;;;;;;20.80;99.90;;;;;;5036231;28;19995;-86
2023/06/08 12:36:31;;;;;;;;;;;20.70;99.90;;;;;;5037526;28;20031;-86
2023/06/08 12:38:58;;;;;;;;;;;20.70;99.90;;;;;;5020210;28;20491;-86
2023/06/08 12:41:24;;;;;;;;;;;20.80;99.90;;;;;;5020916;28;20290;-86
2023/06/08 12:43:50;;;;;;;;;;;20.90;99.90;;;;;;5037083;28;20546;-86
2023/06/08 12:46:18;;;;;;;;;;;20.90;99.90;;;;;;5034103;28;20012;-85
2023/06/08 12:48:45;;;;;;;;;;;20.90;99.90;;;;;;5017010;28;19994;-86
2023/06/08 12:51:11;;;;;;;;;;;20.90;99.90;;;;;;5021000;28;20318;-87
2023/06/08 12:53:36;;;;;;;;;;;20.90;99.90;;;;;;5030343;28;19983;-86
2023/06/08 12:56:02;;;;;;;;;;;20.80;99.90;;;;;;5034986;28;19925;-86
2023/06/08 12:58:27;;;;;;;;;;;20.80;99.90;;;;;;5020316;28;19978;-85
2023/06/08 13:00:53;;;;;;;;;;;20.80;99.90;;;;;;5036284;28;19932;-84
2023/06/08 13:03:19;;;;;;;;;;;21.00;99.90;;;;;;5015918;28;19929;-86
2023/06/08 13:05:45;;;;;;;;;;;20.90;99.90;;;;;;5019657;28;19925;-85
2023/06/08 13:08:10;;;;;;;;;;;20.80;99.90;;;;;;5043274;28;19925;-86
2023/06/08 13:10:37;;;;;;;;;;;20.90;99.90;;;;;;5030719;28;20059;-86
2023/06/08 13:13:03;;;;;;;;;;;20.90;99.90;;;;;;5032851;28;20294;-85
2023/06/08 13:15:28;;;;;;;;;;;21.00;99.90;;;;;;5036593;28;20012;-86
2023/06/08 13:17:58;;;;;;;;;;;21.00;99.90;;;;;;5036723;28;20347;-87
2023/06/08 13:20:24;;;;;;;;;;;21.10;99.90;;;;;;5035328;28;19925;-86
2023/06/08 13:22:50;;;;;;;;;;;21.10;99.90;;;;;;5028172;28;19951;-86
2023/06/08 13:25:16;;;;;;;;;;;21.10;99.90;;;;;;5042564;28;20357;-85
2023/06/08 13:27:43;;;;;;;;;;;21.20;99.80;;;;;;5014792;28;19932;-86
2023/06/08 13:30:09;;;;;;;;;;;21.10;99.30;;;;;;5028795;28;19948;-86
2023/06/08 13:32:34;;;;;;;;;;;21.00;99.90;;;;;;5017803;28;19984;-86
2023/06/08 13:35:00;;;;;;;;;;;20.90;99.90;;;;;;5035378;28;19979;-86
2023/06/08 13:37:26;;;;;;;;;;;20.90;99.90;;;;;;5003605;28;19929;-85
2023/06/08 13:39:51;;;;;;;;;;;21.00;99.90;;;;;;5019730;28;20335;-86
2023/06/08 13:42:17;;;;;;;;;;;21.20;99.90;;;;;;5011255;28;19929;-86
2023/06/08 13:44:46;;;;;;;;;;;21.20;99.90;;;;;;5009601;28;20398;-86
2023/06/08 13:47:12;;;;;;;;;;;21.30;99.90;;;;;;5033880;28;20007;-85
2023/06/08 13:49:38;;;;;;;;;;;21.40;99.90;;;;;;5018110;28;20016;-85
2023/06/08 13:52:04;;;;;;;;;;;21.40;99.90;;;;;;5029598;28;20016;-86
2023/06/08 13:54:30;;;;;;;;;;;21.20;99.90;;;;;;5021477;28;20394;-86
2023/06/08 13:56:55;;;;;;;;;;;21.20;99.90;;;;;;5036148;28;19928;-86
2023/06/08 13:59:21;;;;;;;;;;;21.30;99.90;;;;;;5035755;28;19925;-86
2023/06/08 14:01:47;;;;;;;;;;;21.30;99.90;;;;;;5002411;28;19928;-87
2023/06/08 14:04:12;;;;;;;;;;;21.50;98.90;;;;;;4998647;28;20351;-87
2023/06/08 14:06:38;;;;;;;;;;;21.30;99.50;;;;;;5018438;28;19925;-87
2023/06/08 14:09:04;;;;;;;;;;;21.30;99.90;;;;;;5031451;28;19925;-87
2023/06/08 14:11:30;;;;;;;;;;;21.40;99.90;;;;;;5035997;28;19960;-86
2023/06/08 14:13:57;;;;;;;;;;;21.50;99.50;;;;;;5017830;28;19983;-86
2023/06/08 14:16:25;;;;;;;;;;;21.50;99.70;;;;;;5032124;28;19925;-86